createdAt,value
2019-05-10T00:00:17.043Z,11.00
2019-05-10T00:03:04.852Z,11.00
2019-05-10T00:05:53.149Z,10.90
2019-05-10T00:08:41.024Z,10.90
2019-05-10T00:11:33.275Z,10.80
2019-05-10T00:14:36.411Z,10.80
2019-05-10T00:17:14.239Z,10.80
2019-05-10T00:19:44.774Z,10.80
2019-05-10T00:22:15.423Z,10.70
2019-05-10T00:25:01.673Z,10.70
2019-05-10T00:27:18.099Z,10.60
2019-05-10T00:29:50.337Z,10.60
2019-05-10T00:32:21.037Z,10.50
2019-05-10T00:34:51.493Z,10.50
2019-05-10T00:37:21.923Z,10.40
2019-05-10T00:39:52.826Z,10.40
2019-05-10T00:42:24.273Z,10.30
2019-05-10T00:44:54.790Z,10.30
2019-05-10T00:47:25.219Z,10.30
2019-05-10T00:49:55.621Z,10.30
2019-05-10T00:52:26.069Z,10.30
2019-05-10T00:54:56.449Z,10.30
2019-05-10T00:57:26.831Z,10.30
2019-05-10T00:59:57.241Z,10.30
2019-05-10T01:02:27.633Z,10.30
2019-05-10T01:04:59.245Z,10.30
2019-05-10T01:07:29.659Z,10.30
2019-05-10T01:10:00.023Z,10.30
2019-05-10T01:12:30.377Z,10.30
2019-05-10T01:15:00.709Z,10.30
2019-05-10T01:17:32.122Z,10.30
2019-05-10T01:20:02.520Z,10.30
2019-05-10T01:22:32.871Z,10.30
2019-05-10T01:25:03.289Z,10.30
2019-05-10T01:27:33.636Z,10.30
2019-05-10T01:30:04.713Z,10.30
2019-05-10T01:32:35.341Z,10.40
2019-05-10T01:35:05.899Z,10.40
2019-05-10T01:37:36.261Z,10.40
2019-05-10T01:40:06.999Z,10.30
2019-05-10T01:42:37.374Z,10.30
2019-05-10T01:45:09.431Z,10.30
2019-05-10T01:47:39.915Z,10.30
2019-05-10T01:50:11.577Z,10.30
2019-05-10T01:52:41.971Z,10.30
2019-05-10T01:55:13.737Z,10.30
2019-05-10T01:57:44.135Z,10.20
2019-05-10T02:00:15.625Z,10.20
2019-05-10T02:02:46.021Z,10.20
2019-05-10T02:05:16.763Z,10.20
2019-05-10T02:07:47.168Z,10.20
2019-05-10T02:10:17.571Z,10.20
2019-05-10T02:12:48.005Z,10.20
2019-05-10T02:15:18.619Z,10.10
2019-05-10T02:17:49.221Z,10.10
2019-05-10T02:20:20.723Z,10.10
2019-05-10T02:22:51.064Z,10.10
2019-05-10T02:25:21.547Z,10.20
2019-05-10T02:27:51.876Z,10.10
2019-05-10T02:30:23.749Z,10.10
2019-05-10T02:32:54.114Z,10.20
2019-05-10T02:35:24.541Z,10.10
2019-05-10T02:37:54.855Z,10.20
2019-05-10T02:40:25.604Z,10.10
2019-05-10T02:42:58.353Z,10.10
2019-05-10T02:45:29.050Z,10.00
2019-05-10T02:47:59.428Z,10.00
2019-05-10T02:50:29.805Z,10.00
2019-05-10T02:53:00.190Z,10.00
2019-05-10T02:55:31.637Z,10.00
2019-05-10T02:58:02.209Z,10.00
2019-05-10T03:00:35.505Z,9.90
2019-05-10T03:03:07.553Z,10.00
2019-05-10T03:05:39.968Z,10.00
2019-05-10T03:08:12.903Z,9.90
2019-05-10T03:11:02.876Z,9.90
2019-05-10T03:13:33.296Z,10.00
2019-05-10T03:16:05.180Z,10.00
2019-05-10T03:18:35.554Z,10.00
2019-05-10T03:21:09.209Z,9.90
2019-05-10T03:23:39.609Z,9.90
2019-05-10T03:26:09.966Z,9.90
2019-05-10T03:28:40.294Z,9.90
2019-05-10T03:31:11.108Z,9.90
2019-05-10T03:33:41.870Z,9.90
2019-05-10T03:36:12.702Z,9.90
2019-05-10T03:38:43.615Z,9.90
2019-05-10T03:41:14.404Z,9.90
2019-05-10T03:43:47.076Z,9.90
2019-05-10T03:46:17.407Z,9.90
2019-05-10T03:48:47.975Z,9.90
2019-05-10T03:51:18.423Z,9.90
2019-05-10T03:53:49.931Z,9.80
2019-05-10T03:56:20.408Z,9.80
2019-05-10T03:58:50.823Z,9.80
2019-05-10T04:01:21.360Z,9.70
2019-05-10T04:03:51.742Z,9.70
2019-05-10T04:06:22.112Z,9.70
2019-05-10T04:08:52.560Z,9.70
2019-05-10T04:11:22.911Z,9.70
2019-05-10T04:13:53.373Z,9.80
2019-05-10T04:16:24.905Z,9.70
2019-05-10T04:18:55.367Z,9.70
2019-05-10T04:21:25.753Z,9.70
2019-05-10T04:23:56.210Z,9.70
2019-05-10T04:26:26.580Z,9.80
2019-05-10T04:28:57.042Z,9.80
2019-05-10T04:31:27.429Z,9.90
2019-05-10T04:33:57.875Z,9.80
2019-05-10T04:36:28.417Z,9.90
2019-05-10T04:38:58.778Z,9.90
2019-05-10T04:41:29.187Z,10.00
2019-05-10T04:43:59.549Z,10.00
2019-05-10T04:46:29.970Z,10.10
2019-05-10T04:49:00.399Z,10.10
2019-05-10T04:51:31.052Z,10.30
2019-05-10T04:54:01.564Z,10.30
2019-05-10T04:56:31.960Z,10.30
2019-05-10T04:59:02.344Z,10.30
2019-05-10T05:01:32.719Z,10.40
2019-05-10T05:04:03.097Z,10.40
2019-05-10T05:06:33.539Z,10.30
2019-05-10T05:09:05.987Z,10.30
2019-05-10T05:11:36.383Z,10.40
2019-05-10T05:14:09.408Z,10.40
2019-05-10T05:16:38.809Z,10.50
2019-05-10T05:19:09.137Z,10.50
2019-05-10T05:21:39.624Z,10.50
2019-05-10T05:24:09.977Z,10.50
2019-05-10T05:26:40.495Z,10.60
2019-05-10T05:29:10.846Z,10.60
2019-05-10T05:31:41.275Z,10.60
2019-05-10T05:34:11.758Z,10.70
2019-05-10T05:36:42.174Z,10.80
2019-05-10T05:39:12.572Z,10.80
2019-05-10T05:41:48.986Z,10.80
2019-05-10T05:44:14.971Z,10.90
2019-05-10T05:46:45.444Z,10.90
2019-05-10T05:49:15.824Z,11.00
2019-05-10T05:51:46.251Z,11.00
2019-05-10T05:54:20.909Z,11.00
2019-05-10T05:56:50.605Z,11.00
2019-05-10T05:59:23.821Z,11.10
2019-05-10T06:01:53.051Z,11.20
2019-05-10T06:04:23.393Z,11.30
2019-05-10T06:06:58.760Z,11.30
2019-05-10T06:09:26.027Z,11.40
2019-05-10T06:11:56.536Z,11.50
2019-05-10T06:14:27.192Z,11.60
2019-05-10T06:16:57.711Z,11.60
2019-05-10T06:19:29.919Z,11.60
2019-05-10T06:22:04.518Z,11.60
2019-05-10T06:24:34.335Z,11.80
2019-05-10T06:27:05.091Z,11.90
2019-05-10T06:29:35.711Z,11.90
2019-05-10T06:32:06.153Z,12.10
2019-05-10T06:34:38.735Z,12.40
2019-05-10T06:37:08.781Z,12.70
2019-05-10T06:39:39.180Z,12.90
2019-05-10T06:42:09.645Z,13.00
2019-05-10T06:44:40.223Z,13.20
2019-05-10T06:47:11.375Z,13.20
2019-05-10T06:49:50.637Z,13.30
2019-05-10T06:52:16.233Z,13.50
2019-05-10T06:54:46.335Z,13.70
2019-05-10T06:57:17.368Z,13.60
2019-05-10T06:59:48.751Z,13.40
2019-05-10T07:02:20.085Z,13.30
2019-05-10T07:04:51.435Z,13.40
2019-05-10T07:07:42.757Z,13.20
2019-05-10T07:10:10.337Z,13.00
2019-05-10T07:12:29.941Z,13.00
2019-05-10T07:15:03.530Z,12.80
2019-05-10T07:17:30.572Z,12.90
2019-05-10T07:20:01.323Z,12.90
2019-05-10T07:22:32.930Z,12.90
2019-05-10T07:25:05.071Z,13.00
2019-05-10T07:27:38.194Z,13.00
2019-05-10T07:30:08.409Z,13.00
2019-05-10T07:32:39.066Z,13.20
2019-05-10T07:35:09.654Z,13.40
2019-05-10T07:37:40.164Z,13.70
2019-05-10T07:40:10.842Z,13.70
2019-05-10T07:42:45.654Z,13.80
2019-05-10T07:45:13.504Z,13.60
2019-05-10T07:47:43.892Z,13.30
2019-05-10T07:50:14.796Z,13.20
2019-05-10T07:52:45.762Z,13.10
2019-05-10T07:55:18.650Z,13.10
2019-05-10T07:57:48.787Z,13.20
2019-05-10T08:00:19.318Z,13.30
2019-05-10T08:02:59.324Z,13.30
2019-05-10T08:05:23.034Z,13.20
2019-05-10T08:07:53.753Z,13.30
2019-05-10T08:10:24.199Z,13.40
2019-05-10T08:12:54.884Z,13.60
2019-05-10T08:15:30.513Z,13.80
2019-05-10T08:17:58.559Z,14.00
2019-05-10T08:20:43.675Z,14.20
2019-05-10T08:23:02.836Z,14.40
2019-05-10T08:25:36.420Z,14.30
2019-05-10T08:28:05.624Z,14.40
2019-05-10T08:30:51.233Z,14.40
2019-05-10T08:33:14.373Z,14.30
2019-05-10T08:35:46.538Z,14.30
2019-05-10T08:38:17.232Z,14.40
2019-05-10T08:40:48.073Z,14.20
2019-05-10T08:43:18.499Z,14.00
2019-05-10T08:45:49.718Z,13.60
2019-05-10T08:48:23.129Z,13.40
2019-05-10T08:50:57.136Z,13.00
2019-05-10T08:53:25.032Z,12.80
2019-05-10T08:55:58.684Z,12.60
2019-05-10T08:58:31.492Z,12.40
2019-05-10T09:01:14.638Z,12.30
2019-05-10T09:03:32.279Z,12.20
2019-05-10T09:06:11.029Z,12.20
2019-05-10T09:08:34.932Z,12.20
2019-05-10T09:11:06.965Z,12.20
2019-05-10T09:13:41.128Z,12.20
2019-05-10T09:16:09.231Z,12.20
2019-05-10T09:18:46.632Z,12.40
2019-05-10T09:21:14.334Z,12.50
2019-05-10T09:23:43.765Z,12.70
2019-05-10T09:26:16.603Z,12.70
2019-05-10T09:28:47.616Z,12.70
2019-05-10T09:31:22.854Z,12.80
2019-05-10T09:33:54.041Z,12.80
2019-05-10T09:36:30.759Z,12.80
2019-05-10T09:38:55.172Z,12.90
2019-05-10T09:41:27.713Z,13.10
2019-05-10T09:43:57.739Z,13.30
2019-05-10T09:46:28.133Z,13.40
2019-05-10T09:49:06.038Z,13.50
2019-05-10T09:51:33.118Z,13.40
2019-05-10T09:54:03.778Z,13.50
2019-05-10T09:56:42.053Z,13.60
2019-05-10T09:59:08.385Z,13.70
2019-05-10T10:01:39.332Z,13.80
2019-05-10T10:04:09.770Z,13.90
2019-05-10T10:06:41.820Z,14.00
2019-05-10T10:09:12.212Z,14.10
2019-05-10T10:11:48.172Z,14.20
2019-05-10T10:14:17.773Z,14.40
2019-05-10T10:16:57.845Z,14.50
2019-05-10T10:19:22.472Z,14.70
2019-05-10T10:21:51.097Z,14.80
2019-05-10T10:24:22.024Z,14.70
2019-05-10T10:26:53.976Z,14.60
2019-05-10T10:29:28.858Z,14.50
2019-05-10T10:31:58.835Z,14.50
2019-05-10T10:34:32.684Z,14.50
2019-05-10T10:37:00.635Z,14.40
2019-05-10T10:39:32.226Z,14.50
2019-05-10T10:42:08.770Z,14.50
2019-05-10T10:44:37.098Z,14.50
2019-05-10T10:47:08.367Z,14.50
2019-05-10T10:49:39.079Z,14.60
2019-05-10T10:52:11.386Z,14.60
2019-05-10T10:54:41.573Z,14.70
2019-05-10T10:57:12.042Z,14.90
2019-05-10T10:59:42.482Z,14.90
2019-05-10T11:02:33.185Z,14.90
2019-05-10T11:04:46.932Z,15.00
2019-05-10T11:07:16.957Z,15.10
2019-05-10T11:09:47.476Z,15.20
2019-05-10T11:12:20.875Z,15.20
2019-05-10T11:14:49.889Z,15.20
2019-05-10T11:17:20.252Z,15.30
2019-05-10T11:19:50.596Z,15.20
2019-05-10T11:22:21.555Z,15.00
2019-05-10T11:25:03.043Z,15.00
2019-05-10T11:27:24.346Z,15.00
2019-05-10T11:29:55.241Z,14.90
2019-05-10T11:32:25.902Z,14.90
2019-05-10T11:34:56.272Z,14.90
2019-05-10T11:37:32.650Z,14.90
2019-05-10T11:40:01.712Z,14.90
2019-05-10T11:42:32.246Z,14.90
2019-05-10T11:45:02.865Z,15.00
2019-05-10T11:47:33.340Z,15.10
2019-05-10T11:50:06.447Z,15.20
2019-05-10T11:52:36.610Z,15.40
2019-05-10T11:55:07.573Z,15.60
2019-05-10T11:57:43.619Z,15.70
2019-05-10T12:00:24.315Z,15.70
2019-05-10T12:03:01.584Z,15.80
2019-05-10T12:05:19.876Z,15.80
2019-05-10T12:07:47.636Z,15.80
2019-05-10T12:10:24.854Z,15.90
2019-05-10T12:13:06.055Z,15.90
2019-05-10T12:15:25.730Z,16.00
2019-05-10T12:17:59.588Z,16.00
2019-05-10T12:20:41.164Z,16.10
2019-05-10T12:23:03.267Z,16.10
2019-05-10T12:26:35.812Z,16.10
2019-05-10T12:28:04.860Z,16.20
2019-05-10T12:30:37.212Z,16.30
2019-05-10T12:33:09.855Z,16.40
2019-05-10T12:35:46.569Z,16.50
2019-05-10T12:38:13.239Z,16.60
2019-05-10T12:40:45.777Z,16.70
2019-05-10T12:43:15.706Z,16.80
2019-05-10T12:45:46.234Z,16.70
2019-05-10T12:48:16.932Z,16.80
2019-05-10T12:50:47.270Z,16.80
2019-05-10T12:53:18.532Z,16.90
2019-05-10T12:55:49.370Z,16.90
2019-05-10T12:58:19.756Z,17.00
2019-05-10T13:00:52.492Z,17.10
2019-05-10T13:03:25.329Z,17.20
2019-05-10T13:05:54.165Z,17.30
2019-05-10T13:08:25.376Z,17.30
2019-05-10T13:10:55.734Z,17.30
2019-05-10T13:13:29.748Z,17.30
2019-05-10T13:15:58.628Z,17.10
2019-05-10T13:21:02.884Z,16.90
2019-05-10T13:23:33.304Z,16.90
2019-05-10T13:26:03.712Z,16.80
2019-05-10T13:28:34.114Z,16.90
2019-05-10T13:31:05.790Z,16.90
2019-05-10T13:33:42.105Z,17.10
2019-05-10T13:36:08.757Z,17.20
2019-05-10T13:38:43.985Z,17.30
2019-05-10T13:41:12.098Z,17.50
2019-05-10T13:43:42.460Z,17.50
2019-05-10T13:46:12.938Z,17.40
2019-05-10T13:48:43.341Z,17.40
2019-05-10T13:51:14.288Z,17.50
2019-05-10T13:53:44.712Z,17.40
2019-05-10T13:56:15.159Z,17.40
2019-05-10T13:58:45.675Z,17.60
2019-05-10T14:01:16.023Z,17.80
2019-05-10T14:03:53.733Z,17.80
2019-05-10T14:06:18.486Z,17.80
2019-05-10T14:08:50.529Z,17.80
2019-05-10T14:11:21.082Z,17.40
2019-05-10T14:13:51.640Z,17.30
2019-05-10T14:16:22.589Z,17.20
2019-05-10T14:18:53.333Z,17.10
2019-05-10T14:21:23.630Z,17.10
2019-05-10T14:23:56.984Z,17.20
2019-05-10T14:26:27.192Z,17.20
2019-05-10T14:28:57.787Z,17.10
2019-05-10T14:31:28.218Z,17.00
2019-05-10T14:34:14.861Z,16.90
2019-05-10T14:36:34.067Z,16.90
2019-05-10T14:39:02.920Z,17.00
2019-05-10T14:41:33.316Z,17.10
2019-05-10T14:44:03.793Z,17.10
2019-05-10T14:46:34.485Z,17.10
2019-05-10T14:49:09.695Z,17.10
2019-05-10T14:51:49.550Z,17.20
2019-05-10T14:54:09.278Z,17.20
2019-05-10T14:56:39.814Z,16.90
2019-05-10T14:59:11.389Z,16.80
2019-05-10T15:01:42.972Z,16.80
2019-05-10T15:04:35.743Z,16.80
2019-05-10T15:06:47.273Z,16.80
2019-05-10T15:09:22.085Z,16.70
2019-05-10T15:11:49.745Z,16.80
2019-05-10T15:14:20.168Z,16.80
2019-05-10T15:16:51.033Z,16.80
2019-05-10T15:19:25.336Z,16.70
2019-05-10T15:21:53.748Z,16.60
2019-05-10T15:24:24.440Z,16.60
2019-05-10T15:26:54.954Z,16.50
2019-05-10T15:29:25.399Z,16.50
2019-05-10T15:31:55.775Z,16.40
2019-05-10T15:34:26.439Z,16.40
2019-05-10T15:37:02.439Z,16.60
2019-05-10T15:39:30.495Z,16.60
2019-05-10T15:42:01.105Z,16.60
2019-05-10T15:44:33.673Z,16.60
2019-05-10T15:47:04.193Z,16.50
2019-05-10T15:49:34.651Z,16.40
2019-05-10T15:52:17.001Z,16.50
2019-05-10T15:54:38.007Z,16.50
2019-05-10T15:57:09.639Z,16.50
2019-05-10T15:59:42.950Z,16.60
2019-05-10T16:02:13.378Z,16.60
2019-05-10T16:04:43.857Z,16.50
2019-05-10T16:07:16.526Z,16.40
2019-05-10T16:09:49.863Z,16.40
2019-05-10T16:12:19.016Z,16.30
2019-05-10T16:14:50.789Z,16.20
2019-05-10T16:17:23.941Z,16.20
2019-05-10T16:19:59.728Z,16.20
2019-05-10T16:22:30.354Z,16.20
2019-05-10T16:25:00.988Z,16.20
2019-05-10T16:27:33.951Z,16.20
2019-05-10T16:30:02.723Z,16.20
2019-05-10T16:32:36.301Z,16.10
2019-05-10T16:35:12.560Z,16.20
2019-05-10T16:37:39.404Z,16.10
2019-05-10T16:40:10.026Z,16.00
2019-05-10T16:42:40.463Z,16.00
2019-05-10T16:45:11.261Z,16.00
2019-05-10T16:47:41.899Z,16.00
2019-05-10T16:50:13.313Z,16.00
2019-05-10T16:52:43.725Z,16.00
2019-05-10T16:55:14.467Z,16.00
2019-05-10T16:57:45.019Z,16.00
2019-05-10T17:00:15.679Z,16.00
2019-05-10T17:02:46.071Z,16.00
2019-05-10T17:05:17.350Z,16.00
2019-05-10T17:07:48.179Z,16.00
2019-05-10T17:10:18.876Z,15.90
2019-05-10T17:12:49.220Z,15.90
2019-05-10T17:15:19.583Z,15.80
2019-05-10T17:17:49.933Z,15.80
2019-05-10T17:20:20.651Z,15.70
2019-05-10T17:22:51.033Z,15.70
2019-05-10T17:25:22.779Z,15.60
2019-05-10T17:27:57.556Z,15.60
2019-05-10T17:30:27.715Z,15.50
2019-05-10T17:33:04.117Z,15.50
2019-05-10T17:35:30.420Z,15.50
2019-05-10T17:38:01.019Z,15.40
2019-05-10T17:40:31.331Z,15.40
2019-05-10T17:43:02.620Z,15.30
2019-05-10T17:45:34.713Z,15.30
2019-05-10T17:48:08.587Z,15.30
2019-05-10T17:50:37.199Z,15.20
2019-05-10T17:53:07.635Z,15.20
2019-05-10T17:55:38.079Z,15.10
2019-05-10T17:58:08.475Z,15.00
2019-05-10T18:00:38.880Z,15.00
2019-05-10T18:03:09.359Z,14.90
2019-05-10T18:05:41.301Z,14.80
2019-05-10T18:08:11.874Z,14.80
2019-05-10T18:10:42.307Z,14.70
2019-05-10T18:13:12.945Z,14.60
2019-05-10T18:15:43.351Z,14.50
2019-05-10T18:18:13.719Z,14.50
2019-05-10T18:20:44.668Z,14.50
2019-05-10T18:23:21.467Z,14.40
2019-05-10T18:25:52.523Z,14.40
2019-05-10T18:28:21.642Z,14.30
2019-05-10T18:30:52.087Z,14.30
2019-05-10T18:33:23.670Z,14.20
2019-05-10T18:35:54.744Z,14.20
2019-05-10T18:38:30.927Z,14.20
2019-05-10T18:40:58.049Z,14.10
2019-05-10T18:43:28.403Z,14.00
2019-05-10T18:46:01.303Z,14.00
2019-05-10T18:48:30.819Z,13.90
2019-05-10T18:51:01.528Z,13.90
2019-05-10T18:53:31.921Z,13.90
2019-05-10T18:56:02.375Z,13.80
2019-05-10T18:58:32.782Z,13.70
2019-05-10T19:01:03.193Z,13.70
2019-05-10T19:03:35.358Z,13.70
2019-05-10T19:06:11.157Z,13.60
2019-05-10T19:08:38.396Z,13.60
2019-05-10T19:11:09.253Z,13.50
2019-05-10T19:13:47.108Z,13.50
2019-05-10T19:16:12.293Z,13.40
2019-05-10T19:18:42.717Z,13.40
2019-05-10T19:21:13.133Z,13.40
2019-05-10T19:23:43.547Z,13.40
2019-05-10T19:26:17.369Z,13.30
2019-05-10T19:28:46.097Z,13.30
2019-05-10T19:31:16.475Z,13.30
2019-05-10T19:33:46.878Z,13.20
2019-05-10T19:36:17.323Z,13.20
2019-05-10T19:38:47.693Z,13.20
2019-05-10T19:41:20.240Z,13.10
2019-05-10T19:43:56.306Z,13.10
2019-05-10T19:46:23.503Z,13.10
2019-05-10T19:48:53.999Z,13.10
2019-05-10T19:51:24.504Z,13.00
2019-05-10T19:53:54.933Z,13.00
2019-05-10T19:56:30.092Z,13.00
2019-05-10T19:58:57.223Z,12.90
2019-05-10T20:01:27.709Z,12.90
2019-05-10T20:03:58.135Z,12.90
2019-05-10T20:06:28.578Z,12.90
2019-05-10T20:08:58.981Z,12.80
2019-05-10T20:11:29.473Z,12.80
2019-05-10T20:13:59.873Z,12.80
2019-05-10T20:16:30.441Z,12.80
2019-05-10T20:19:00.796Z,12.80
2019-05-10T20:21:31.348Z,12.80
2019-05-10T20:24:02.189Z,12.80
2019-05-10T20:26:32.661Z,12.70
2019-05-10T20:29:03.525Z,12.70
2019-05-10T20:31:33.933Z,12.70
2019-05-10T20:34:04.319Z,12.70
2019-05-10T20:36:35.024Z,12.70
2019-05-10T20:39:07.387Z,12.70
2019-05-10T20:41:37.841Z,12.70
2019-05-10T20:44:08.302Z,12.70
2019-05-10T20:46:38.704Z,12.70
2019-05-10T20:49:09.108Z,12.80
2019-05-10T20:51:41.460Z,12.70
2019-05-10T20:54:12.031Z,12.70
2019-05-10T20:56:42.753Z,12.70
2019-05-10T20:59:13.568Z,12.70
2019-05-10T21:01:43.967Z,12.70
2019-05-10T21:04:14.420Z,12.70
2019-05-10T21:06:44.834Z,12.70
2019-05-10T21:09:16.841Z,12.70
2019-05-10T21:11:47.272Z,12.70
2019-05-10T21:14:17.897Z,12.70
2019-05-10T21:16:48.335Z,12.70
2019-05-10T21:19:20.065Z,12.70
2019-05-10T21:21:50.665Z,12.70
2019-05-10T21:24:22.109Z,12.60
2019-05-10T21:26:52.483Z,12.60
2019-05-10T21:29:23.222Z,12.60
2019-05-10T21:31:53.556Z,12.60
2019-05-10T21:34:24.006Z,12.60
2019-05-10T21:36:54.707Z,12.60
2019-05-10T21:39:25.096Z,12.50
2019-05-10T21:41:55.549Z,12.50
2019-05-10T21:44:26.439Z,12.50
2019-05-10T21:46:57.177Z,12.40
2019-05-10T21:49:27.562Z,12.40
2019-05-10T21:51:57.968Z,12.30
2019-05-10T21:54:28.561Z,12.30
2019-05-10T21:56:58.943Z,12.30
2019-05-10T21:59:29.441Z,12.20
2019-05-10T22:01:59.824Z,12.20
2019-05-10T22:04:30.264Z,12.10
2019-05-10T22:07:01.192Z,12.20
2019-05-10T22:09:31.531Z,12.10
2019-05-10T22:12:02.369Z,12.10
2019-05-10T22:14:32.849Z,12.10
2019-05-10T22:17:03.324Z,12.10
2019-05-10T22:19:33.835Z,12.10
2019-05-10T22:22:04.180Z,12.10
2019-05-10T22:24:34.810Z,12.10
2019-05-10T22:27:05.283Z,12.20
2019-05-10T22:29:35.650Z,12.20
2019-05-10T22:32:06.345Z,12.20
2019-05-10T22:34:36.951Z,12.20
2019-05-10T22:37:07.309Z,12.20
2019-05-10T22:39:38.006Z,12.20
2019-05-10T22:42:08.437Z,12.20
2019-05-10T22:44:38.847Z,12.20
2019-05-10T22:47:09.258Z,12.20
2019-05-10T22:49:39.647Z,12.20
2019-05-10T22:52:10.071Z,12.20
2019-05-10T22:54:40.490Z,12.20
2019-05-10T22:57:10.908Z,12.20
2019-05-10T22:59:41.306Z,12.20
2019-05-10T23:02:11.648Z,12.20
2019-05-10T23:04:42.110Z,12.10
2019-05-10T23:07:12.505Z,12.10
2019-05-10T23:09:42.852Z,12.10
2019-05-10T23:12:13.277Z,12.10
2019-05-10T23:14:43.707Z,12.00
2019-05-10T23:17:15.377Z,12.00
2019-05-10T23:19:45.744Z,12.00
2019-05-10T23:22:16.175Z,12.00
2019-05-10T23:24:46.630Z,11.90
2019-05-10T23:27:17.068Z,12.00
2019-05-10T23:29:47.522Z,12.00
2019-05-10T23:32:17.936Z,12.00
2019-05-10T23:34:48.317Z,12.00
2019-05-10T23:37:18.992Z,12.00
2019-05-10T23:39:49.689Z,12.00
2019-05-10T23:42:20.044Z,12.10
2019-05-10T23:44:50.569Z,12.10
2019-05-10T23:47:20.981Z,12.10
2019-05-10T23:49:51.784Z,12.10
2019-05-10T23:52:22.138Z,12.10
2019-05-10T23:54:52.595Z,12.00
2019-05-10T23:57:22.980Z,12.00
2019-05-10T23:59:53.346Z,12.00
